Time;durP1;ratioP1;P1;durP2;ratioP2;P2;SDS_P1;SDS_P2;PMS_P1;PMS_P2;Temp;Humidity;BMP_temperature;BMP_pressure;BME280_temperature;BME280_humidity;BME280_pressure;Samples;Min_cycle;Max_cycle;Signal;HPM_P1;HPM_P2
2022/11/30 00:00:52;;;;;;;55.53;19.77;;;;;;;;;;5131230;27;20493;-46
2022/11/30 00:03:18;;;;;;;61.60;20.10;;;;;;;;;;5129677;27;20096;-45
2022/11/30 00:05:45;;;;;;;60.55;20.27;;;;;;;;;;5130255;27;20043;-45
2022/11/30 00:08:11;;;;;;;50.17;19.25;;;;;;;;;;5129986;27;20586;-44
2022/11/30 00:10:38;;;;;;;55.72;18.58;;;;;;;;;;5129928;27;20043;-48
2022/11/30 00:13:05;;;;;;;73.45;20.33;;;;;;;;;;5130892;27;20031;-45
2022/11/30 00:15:32;;;;;;;40.90;16.80;;;;;;;;;;5130806;27;20035;-44
2022/11/30 00:17:58;;;;;;;49.63;17.42;;;;;;;;;;5129291;27;20134;-47
2022/11/30 00:20:25;;;;;;;66.15;19.38;;;;;;;;;;5130207;27;20043;-48
2022/11/30 00:22:53;;;;;;;65.82;19.52;;;;;;;;;;5130291;27;20036;-44
2022/11/30 00:25:19;;;;;;;64.32;18.10;;;;;;;;;;5130156;27;20055;-43
2022/11/30 00:27:46;;;;;;;58.40;19.13;;;;;;;;;;5131060;27;20122;-48
2022/11/30 00:30:13;;;;;;;67.05;19.35;;;;;;;;;;5130198;27;20495;-44
2022/11/30 00:32:40;;;;;;;56.72;17.30;;;;;;;;;;5130338;27;20043;-44
2022/11/30 00:35:06;;;;;;;60.05;18.58;;;;;;;;;;5130055;27;20042;-47
2022/11/30 00:37:33;;;;;;;56.47;18.65;;;;;;;;;;5125846;27;20035;-44
2022/11/30 00:40:00;;;;;;;41.25;16.27;;;;;;;;;;5129041;27;20066;-49
2022/11/30 00:42:26;;;;;;;65.75;18.77;;;;;;;;;;5129214;27;20158;-45
2022/11/30 00:44:53;;;;;;;58.95;19.15;;;;;;;;;;5125850;27;20047;-44
2022/11/30 00:47:19;;;;;;;47.45;18.40;;;;;;;;;;5129686;27;20491;-45
2022/11/30 00:49:46;;;;;;;67.35;21.30;;;;;;;;;;5129820;27;20557;-43
2022/11/30 00:52:12;;;;;;;55.63;19.50;;;;;;;;;;5129853;27;20074;-45
2022/11/30 00:54:39;;;;;;;61.22;19.30;;;;;;;;;;5129271;27;20047;-43
2022/11/30 00:57:05;;;;;;;47.22;18.83;;;;;;;;;;5129102;27;20122;-45
2022/11/30 00:59:31;;;;;;;59.40;20.05;;;;;;;;;;5129579;27;20043;-44
2022/11/30 01:01:58;;;;;;;49.53;18.55;;;;;;;;;;5130119;27;20035;-44
2022/11/30 01:04:25;;;;;;;76.28;20.48;;;;;;;;;;5111004;27;20070;-45
2022/11/30 01:06:51;;;;;;;55.70;19.98;;;;;;;;;;5112206;27;20047;-45
2022/11/30 01:09:18;;;;;;;58.30;19.50;;;;;;;;;;5129024;27;20414;-48
2022/11/30 01:11:44;;;;;;;54.47;19.63;;;;;;;;;;5129066;27;20039;-43
2022/11/30 01:14:11;;;;;;;67.40;20.73;;;;;;;;;;5129795;27;20055;-45
2022/11/30 01:16:37;;;;;;;66.05;20.35;;;;;;;;;;5129406;27;20376;-44
2022/11/30 01:19:04;;;;;;;56.55;19.85;;;;;;;;;;5129099;27;20126;-45
2022/11/30 01:21:31;;;;;;;56.05;20.40;;;;;;;;;;5130297;27;20092;-44
2022/11/30 01:23:57;;;;;;;52.70;18.80;;;;;;;;;;5128906;27;20064;-47
2022/11/30 01:26:24;;;;;;;82.22;21.30;;;;;;;;;;5128357;27;20039;-45
2022/11/30 01:28:51;;;;;;;80.60;21.95;;;;;;;;;;5129459;27;20499;-46
2022/11/30 01:31:18;;;;;;;74.38;20.90;;;;;;;;;;5129298;27;20126;-45
2022/11/30 01:33:49;;;;;;;59.03;19.83;;;;;;;;;;5129770;27;20039;-43
2022/11/30 01:36:17;;;;;;;74.80;20.63;;;;;;;;;;5126158;27;20054;-43
2022/11/30 01:38:45;;;;;;;56.90;20.13;;;;;;;;;;5129243;27;20490;-44
2022/11/30 01:41:13;;;;;;;66.43;19.45;;;;;;;;;;5127468;27;20045;-46
2022/11/30 01:43:39;;;;;;;52.17;19.15;;;;;;;;;;5128454;27;20043;-44
2022/11/30 01:46:26;;;;;;;60.08;18.50;;;;;;;;;;5128491;27;20130;-45
2022/11/30 01:48:59;;;;;;;53.92;17.98;;;;;;;;;;5111778;27;20043;-44
2022/11/30 01:51:29;;;;;;;79.72;22.33;;;;;;;;;;5128748;27;20046;-44
2022/11/30 01:53:56;;;;;;;82.88;21.08;;;;;;;;;;5127542;27;20058;-45
2022/11/30 01:56:22;;;;;;;64.25;19.75;;;;;;;;;;5127454;27;20407;-45
2022/11/30 01:58:49;;;;;;;57.90;19.35;;;;;;;;;;5126079;27;21056;-45
2022/11/30 02:01:15;;;;;;;76.93;21.42;;;;;;;;;;5127993;27;20050;-45
2022/11/30 02:03:58;;;;;;;51.47;18.25;;;;;;;;;;5129110;27;20061;-46
2022/11/30 02:06:25;;;;;;;56.95;18.65;;;;;;;;;;5127166;27;20043;-44
2022/11/30 02:08:52;;;;;;;56.78;19.58;;;;;;;;;;5128001;27;20037;-45
2022/11/30 02:11:18;;;;;;;47.20;16.98;;;;;;;;;;5128312;27;20043;-44
2022/11/30 02:13:48;;;;;;;65.80;19.67;;;;;;;;;;5125040;28;20059;-45
2022/11/30 02:16:26;;;;;;;75.47;19.35;;;;;;;;;;5128821;27;20039;-44
2022/11/30 02:18:53;;;;;;;50.55;18.50;;;;;;;;;;5127443;27;20047;-48
2022/11/30 02:21:22;;;;;;;58.08;18.02;;;;;;;;;;5110118;28;20038;-45
2022/11/30 02:24:21;;;;;;;44.58;16.48;;;;;;;;;;5127927;27;20054;-44
2022/11/30 02:26:57;;;;;;;60.08;18.70;;;;;;;;;;5024330;28;20123;-46
2022/11/30 02:29:27;;;;;;;53.22;17.25;;;;;;;;;;5025280;28;20526;-44
2022/11/30 02:31:57;;;;;;;54.22;17.83;;;;;;;;;;5024818;28;20045;-44
2022/11/30 02:34:26;;;;;;;92.50;22.10;;;;;;;;;;5024328;28;20068;-49
2022/11/30 02:36:54;;;;;;;58.33;19.42;;;;;;;;;;5025531;28;20521;-43
2022/11/30 02:39:21;;;;;;;56.17;19.15;;;;;;;;;;5024203;28;20128;-44
2022/11/30 02:41:47;;;;;;;58.58;18.77;;;;;;;;;;5024662;28;20037;-46
2022/11/30 02:44:15;;;;;;;44.10;15.35;;;;;;;;;;5024488;28;20068;-42
2022/11/30 02:46:51;;;;;;;81.68;19.85;;;;;;;;;;5024489;28;20049;-45
2022/11/30 02:49:30;;;;;;;59.70;18.58;;;;;;;;;;5025252;28;20049;-43
2022/11/30 02:51:57;;;;;;;60.38;19.77;;;;;;;;;;5025594;28;20046;-43
2022/11/30 02:54:24;;;;;;;65.63;20.40;;;;;;;;;;5024095;28;20042;-47
2022/11/30 02:56:50;;;;;;;44.33;18.42;;;;;;;;;;5024492;28;20050;-42
2022/11/30 02:59:17;;;;;;;75.78;21.45;;;;;;;;;;5024734;28;20052;-47
2022/11/30 03:01:44;;;;;;;52.75;17.13;;;;;;;;;;5044641;27;20906;-45
2022/11/30 03:04:10;;;;;;;51.83;17.05;;;;;;;;;;5128566;27;20083;-44
2022/11/30 03:06:37;;;;;;;59.65;18.48;;;;;;;;;;5128349;28;20047;-47
2022/11/30 03:09:03;;;;;;;65.50;18.70;;;;;;;;;;5127538;27;20619;-44
2022/11/30 03:11:30;;;;;;;45.03;16.73;;;;;;;;;;5128576;27;20047;-45
2022/11/30 03:13:56;;;;;;;53.85;18.63;;;;;;;;;;5127985;27;20096;-44
2022/11/30 03:16:23;;;;;;;76.00;19.90;;;;;;;;;;5126793;27;20043;-44
2022/11/30 03:18:49;;;;;;;58.53;19.77;;;;;;;;;;5128991;27;20043;-44
2022/11/30 03:21:16;;;;;;;59.40;19.40;;;;;;;;;;5131101;27;20035;-44
2022/11/30 03:23:42;;;;;;;72.55;20.67;;;;;;;;;;5131234;27;20038;-47
2022/11/30 03:26:09;;;;;;;60.72;18.63;;;;;;;;;;5130657;27;20039;-45
2022/11/30 03:28:36;;;;;;;58.30;18.52;;;;;;;;;;5130770;27;20035;-44
2022/11/30 03:31:02;;;;;;;69.57;19.88;;;;;;;;;;5131461;27;20043;-44
2022/11/30 03:33:29;;;;;;;44.95;16.48;;;;;;;;;;5130995;27;20047;-44
2022/11/30 03:36:03;;;;;;;64.43;18.52;;;;;;;;;;5130327;27;20043;-44
2022/11/30 03:38:29;;;;;;;48.72;17.48;;;;;;;;;;5126883;27;20895;-44
2022/11/30 03:41:03;;;;;;;69.47;19.45;;;;;;;;;;5130914;27;20039;-45
2022/11/30 03:43:30;;;;;;;55.97;18.92;;;;;;;;;;5130905;27;20606;-44
2022/11/30 03:45:56;;;;;;;54.20;18.13;;;;;;;;;;5131997;27;20050;-45
2022/11/30 03:48:23;;;;;;;58.63;18.08;;;;;;;;;;5130509;27;20039;-44
2022/11/30 03:50:50;;;;;;;65.38;19.55;;;;;;;;;;5126662;27;20043;-44
2022/11/30 03:53:17;;;;;;;69.78;18.67;;;;;;;;;;5130327;27;20061;-44
2022/11/30 03:55:44;;;;;;;50.67;17.35;;;;;;;;;;5128668;27;20043;-44
2022/11/30 03:58:11;;;;;;;57.50;19.13;;;;;;;;;;5127502;27;20035;-45
2022/11/30 04:00:37;;;;;;;58.92;17.35;;;;;;;;;;5112292;27;20448;-46
2022/11/30 04:03:04;;;;;;;61.53;19.05;;;;;;;;;;5129720;27;20047;-43
2022/11/30 04:05:30;;;;;;;65.95;19.33;;;;;;;;;;5129744;27;20051;-46
2022/11/30 04:07:57;;;;;;;52.92;17.70;;;;;;;;;;5130675;27;20135;-48
2022/11/30 04:10:23;;;;;;;76.20;20.83;;;;;;;;;;5129608;27;20670;-45
2022/11/30 04:12:50;;;;;;;66.07;19.77;;;;;;;;;;5131472;27;20043;-43
2022/11/30 04:15:16;;;;;;;55.58;19.50;;;;;;;;;;5130111;27;20035;-44
2022/11/30 04:17:43;;;;;;;52.05;19.23;;;;;;;;;;5128900;27;20072;-44
2022/11/30 04:20:10;;;;;;;79.75;20.80;;;;;;;;;;5125800;27;20057;-44
2022/11/30 04:22:37;;;;;;;64.85;18.55;;;;;;;;;;5130375;27;20063;-43
2022/11/30 04:25:03;;;;;;;62.95;19.40;;;;;;;;;;5126514;27;20395;-43
2022/11/30 04:27:30;;;;;;;52.55;19.77;;;;;;;;;;5129819;27;20047;-47
2022/11/30 04:29:56;;;;;;;44.88;18.83;;;;;;;;;;5129779;27;20027;-49
2022/11/30 04:32:23;;;;;;;86.90;22.20;;;;;;;;;;5128359;27;20042;-43
2022/11/30 04:34:49;;;;;;;73.78;20.77;;;;;;;;;;5129448;27;20046;-45
2022/11/30 04:37:16;;;;;;;57.08;18.90;;;;;;;;;;5130132;27;20039;-46
2022/11/30 04:39:42;;;;;;;60.00;19.60;;;;;;;;;;5129703;27;20035;-43
2022/11/30 04:42:09;;;;;;;61.15;19.08;;;;;;;;;;5129562;27;20092;-46
2022/11/30 04:44:35;;;;;;;63.03;18.98;;;;;;;;;;5129599;27;20031;-46
2022/11/30 04:47:02;;;;;;;53.97;19.08;;;;;;;;;;5129461;27;20039;-47
2022/11/30 04:49:28;;;;;;;52.50;18.27;;;;;;;;;;5128692;27;20046;-48
2022/11/30 04:51:55;;;;;;;57.78;18.83;;;;;;;;;;5130612;27;20038;-47
2022/11/30 04:54:21;;;;;;;69.13;20.13;;;;;;;;;;5128712;27;20539;-48
2022/11/30 04:56:48;;;;;;;66.50;19.55;;;;;;;;;;5126798;27;20054;-46
2022/11/30 04:59:14;;;;;;;63.22;18.48;;;;;;;;;;5129279;27;20047;-45
2022/11/30 05:01:41;;;;;;;55.03;18.60;;;;;;;;;;5129127;27;20659;-44
2022/11/30 05:04:07;;;;;;;65.32;20.77;;;;;;;;;;5126034;27;20058;-44
2022/11/30 05:06:34;;;;;;;73.53;21.20;;;;;;;;;;5129454;27;20051;-44
2022/11/30 05:09:00;;;;;;;72.90;21.17;;;;;;;;;;5128884;27;20092;-48
2022/11/30 05:11:27;;;;;;;51.50;20.35;;;;;;;;;;5125621;27;20406;-45
2022/11/30 05:13:53;;;;;;;52.50;20.60;;;;;;;;;;5129606;27;20039;-43
2022/11/30 05:16:20;;;;;;;82.85;22.67;;;;;;;;;;5129069;27;20043;-44
2022/11/30 05:18:46;;;;;;;57.15;19.45;;;;;;;;;;5111771;27;20039;-43
2022/11/30 05:21:13;;;;;;;76.07;22.90;;;;;;;;;;5129056;27;20031;-44
2022/11/30 05:23:39;;;;;;;52.45;21.13;;;;;;;;;;5129179;27;20033;-43
2022/11/30 05:26:06;;;;;;;69.03;22.58;;;;;;;;;;5121372;27;20066;-43
2022/11/30 05:28:32;;;;;;;67.20;20.42;;;;;;;;;;5128929;27;20031;-44
2022/11/30 05:31:04;;;;;;;69.75;21.55;;;;;;;;;;5130160;27;20039;-44
2022/11/30 05:33:31;;;;;;;50.23;20.30;;;;;;;;;;5128950;27;20039;-43
2022/11/30 05:35:58;;;;;;;63.53;20.80;;;;;;;;;;5128638;27;20915;-45
2022/11/30 05:38:24;;;;;;;89.78;22.65;;;;;;;;;;5128451;27;20047;-43
2022/11/30 05:40:51;;;;;;;52.15;19.70;;;;;;;;;;5127751;27;20480;-43
2022/11/30 05:43:17;;;;;;;80.32;22.65;;;;;;;;;;5128709;27;20129;-46
2022/11/30 05:45:44;;;;;;;70.45;21.42;;;;;;;;;;5129326;27;20043;-46
2022/11/30 05:48:10;;;;;;;72.55;21.42;;;;;;;;;;5128414;27;20039;-44
2022/11/30 05:50:37;;;;;;;58.53;20.15;;;;;;;;;;5128497;27;20118;-46
2022/11/30 05:53:03;;;;;;;46.85;19.20;;;;;;;;;;5128239;27;20031;-43
2022/11/30 05:55:31;;;;;;;62.65;22.40;;;;;;;;;;5128910;27;20048;-45
2022/11/30 05:57:57;;;;;;;64.85;19.33;;;;;;;;;;5128773;27;20035;-44
2022/11/30 06:00:24;;;;;;;87.88;22.45;;;;;;;;;;5126985;27;20367;-44
2022/11/30 06:02:54;;;;;;;59.60;20.80;;;;;;;;;;5127752;27;20051;-45
2022/11/30 06:05:20;;;;;;;91.07;23.13;;;;;;;;;;5127481;27;20039;-45
2022/11/30 06:07:47;;;;;;;57.10;19.70;;;;;;;;;;5120277;27;20031;-45
2022/11/30 06:10:13;;;;;;;70.78;21.42;;;;;;;;;;5127560;27;20047;-43
2022/11/30 06:12:40;;;;;;;58.10;20.05;;;;;;;;;;5128500;27;20043;-44
2022/11/30 06:15:07;;;;;;;67.15;21.33;;;;;;;;;;5124113;27;20035;-44
2022/11/30 06:17:36;;;;;;;75.38;22.27;;;;;;;;;;5127633;27;20046;-44
2022/11/30 06:20:06;;;;;;;71.53;20.33;;;;;;;;;;5128067;27;20102;-44
2022/11/30 06:22:32;;;;;;;65.05;20.95;;;;;;;;;;5128033;27;20047;-45
2022/11/30 06:24:59;;;;;;;54.90;20.42;;;;;;;;;;5128391;27;20039;-46
2022/11/30 06:27:28;;;;;;;58.63;21.25;;;;;;;;;;5127924;28;20032;-44
2022/11/30 06:29:55;;;;;;;76.38;22.23;;;;;;;;;;5127655;28;20032;-43
2022/11/30 06:32:21;;;;;;;61.38;21.58;;;;;;;;;;5127377;28;20039;-45
2022/11/30 06:34:48;;;;;;;73.45;23.13;;;;;;;;;;5119843;27;20049;-44
2022/11/30 06:37:15;;;;;;;76.20;23.05;;;;;;;;;;5128577;28;20441;-46
2022/11/30 06:39:41;;;;;;;68.40;23.13;;;;;;;;;;5127020;27;20494;-43
2022/11/30 06:42:28;;;;;;;62.90;21.38;;;;;;;;;;5126901;28;20071;-45
2022/11/30 06:44:55;;;;;;;72.60;21.80;;;;;;;;;;5127937;27;20054;-48
2022/11/30 06:47:21;;;;;;;64.28;21.77;;;;;;;;;;5128341;28;20128;-44
2022/11/30 06:49:48;;;;;;;57.85;20.88;;;;;;;;;;5128453;28;20030;-46
2022/11/30 06:52:14;;;;;;;84.60;22.67;;;;;;;;;;5127818;27;20672;-46
2022/11/30 06:54:41;;;;;;;84.72;21.92;;;;;;;;;;5131993;27;20081;-45
2022/11/30 06:57:07;;;;;;;54.00;19.33;;;;;;;;;;5131244;27;20031;-45
2022/11/30 06:59:36;;;;;;;71.85;20.27;;;;;;;;;;5130138;27;20047;-45
2022/11/30 07:02:02;;;;;;;58.33;19.92;;;;;;;;;;5131460;27;20143;-45
2022/11/30 07:04:36;;;;;;;;;;;;;;;;;;5131731;27;20530;-46
2022/11/30 07:07:02;;;;;;;79.00;23.17;;;;;;;;;;5131596;27;19919;-44
2022/11/30 07:09:29;;;;;;;79.28;21.73;;;;;;;;;;5130006;27;20056;-46
2022/11/30 07:11:55;;;;;;;72.95;21.15;;;;;;;;;;5130423;27;20031;-46
2022/11/30 07:14:22;;;;;;;69.78;21.63;;;;;;;;;;5130320;27;20580;-46
2022/11/30 07:16:48;;;;;;;74.75;22.75;;;;;;;;;;5130452;27;20042;-47
2022/11/30 07:19:15;;;;;;;63.53;22.52;;;;;;;;;;5131953;27;20091;-46
2022/11/30 07:21:41;;;;;;;53.13;20.20;;;;;;;;;;5132498;27;20043;-47
2022/11/30 07:26:55;;;;;;;54.38;20.15;;;;;;;;;;5131302;27;20450;-44
2022/11/30 07:29:22;;;;;;;71.75;20.92;;;;;;;;;;5131196;27;20023;-46
2022/11/30 07:31:50;;;;;;;64.72;21.13;;;;;;;;;;5131787;27;20058;-44
2022/11/30 07:34:16;;;;;;;77.72;24.65;;;;;;;;;;5131848;27;20039;-43
2022/11/30 07:36:43;;;;;;;76.47;23.60;;;;;;;;;;5132252;27;20043;-44
2022/11/30 07:39:10;;;;;;;96.45;26.33;;;;;;;;;;5131284;27;20539;-45
2022/11/30 07:41:37;;;;;;;73.07;23.00;;;;;;;;;;5129655;27;20042;-43
2022/11/30 07:44:05;;;;;;;69.47;23.13;;;;;;;;;;5112206;27;20114;-44
2022/11/30 07:46:34;;;;;;;72.45;22.73;;;;;;;;;;5126054;27;20043;-44
2022/11/30 07:49:02;;;;;;;56.88;20.60;;;;;;;;;;5129706;27;20046;-43
2022/11/30 07:51:28;;;;;;;63.22;20.60;;;;;;;;;;5125575;27;20434;-44
2022/11/30 07:53:55;;;;;;;50.83;19.45;;;;;;;;;;5129042;27;20073;-45
2022/11/30 07:56:22;;;;;;;88.00;23.05;;;;;;;;;;5106732;27;20440;-46
2022/11/30 07:58:49;;;;;;;69.95;22.50;;;;;;;;;;5129508;27;20047;-45
2022/11/30 08:01:22;;;;;;;67.10;21.15;;;;;;;;;;5130337;27;20023;-45
2022/11/30 08:03:49;;;;;;;;;;;;;;;;;;5130542;27;20050;-42
2022/11/30 08:06:23;;;;;;;55.10;18.42;;;;;;;;;;5126869;27;20018;-43
2022/11/30 08:08:50;;;;;;;62.55;19.05;;;;;;;;;;5130026;27;20054;-44
2022/11/30 08:11:19;;;;;;;56.60;19.50;;;;;;;;;;5129693;27;20475;-44
2022/11/30 08:13:46;;;;;;;63.13;19.75;;;;;;;;;;5126544;27;20498;-45
2022/11/30 08:16:14;;;;;;;73.28;21.40;;;;;;;;;;5128033;27;20061;-45
2022/11/30 08:18:41;;;;;;;62.72;20.35;;;;;;;;;;5130924;27;20479;-45
2022/11/30 08:21:08;;;;;;;58.80;18.33;;;;;;;;;;5125308;27;20469;-44
2022/11/30 08:23:39;;;;;;;50.88;17.42;;;;;;;;;;5129544;27;20038;-45
2022/11/30 08:26:07;;;;;;;64.10;18.85;;;;;;;;;;5128461;27;20046;-44
2022/11/30 08:28:35;;;;;;;54.92;17.33;;;;;;;;;;5104864;27;20537;-44
2022/11/30 08:31:02;;;;;;;41.92;14.68;;;;;;;;;;5130726;27;20069;-44
2022/11/30 08:33:30;;;;;;;60.63;16.92;;;;;;;;;;5130272;27;20117;-44
2022/11/30 08:36:05;;;;;;;48.75;14.45;;;;;;;;;;5126779;27;20035;-44
2022/11/30 08:38:32;;;;;;;72.63;17.95;;;;;;;;;;5124064;27;20461;-44
2022/11/30 08:40:58;;;;;;;57.30;17.65;;;;;;;;;;5127977;27;20506;-44
2022/11/30 08:43:25;;;;;;;60.25;17.90;;;;;;;;;;5130465;27;20035;-43
2022/11/30 08:45:52;;;;;;;42.58;14.57;;;;;;;;;;5128889;27;20498;-43
2022/11/30 08:48:22;;;;;;;72.65;18.38;;;;;;;;;;5129800;27;20142;-43
2022/11/30 08:50:49;;;;;;;69.88;17.52;;;;;;;;;;5124898;27;20593;-43
2022/11/30 08:53:15;;;;;;;62.13;15.50;;;;;;;;;;5126257;27;20040;-43
2022/11/30 08:55:42;;;;;;;59.03;16.35;;;;;;;;;;5127901;27;20034;-45
2022/11/30 08:58:08;;;;;;;43.95;13.68;;;;;;;;;;5125346;27;20031;-44
2022/11/30 09:00:35;;;;;;;61.85;15.65;;;;;;;;;;5128605;27;20407;-45
2022/11/30 09:03:01;;;;;;;53.83;15.07;;;;;;;;;;5127933;27;20052;-44
2022/11/30 09:05:28;;;;;;;43.78;13.23;;;;;;;;;;5127413;27;20097;-43
2022/11/30 09:07:54;;;;;;;54.83;14.50;;;;;;;;;;5128319;27;20046;-45
2022/11/30 09:10:22;;;;;;;82.72;18.40;;;;;;;;;;5126694;27;20088;-44
2022/11/30 09:12:48;;;;;;;82.47;17.00;;;;;;;;;;5123516;27;20828;-43
2022/11/30 09:15:15;;;;;;;64.30;15.20;;;;;;;;;;5124567;27;20043;-46
2022/11/30 09:17:42;;;;;;;61.47;14.63;;;;;;;;;;5105521;27;20039;-48
2022/11/30 09:20:08;;;;;;;63.30;14.05;;;;;;;;;;5125680;27;20037;-43
2022/11/30 09:22:35;;;;;;;62.58;15.00;;;;;;;;;;5126702;27;20039;-43
2022/11/30 09:25:01;;;;;;;45.97;11.70;;;;;;;;;;5127110;27;20181;-45
2022/11/30 09:27:30;;;;;;;51.38;15.30;;;;;;;;;;5126653;27;20039;-46
2022/11/30 09:29:57;;;;;;;54.45;13.57;;;;;;;;;;5125675;27;20544;-45
2022/11/30 09:32:23;;;;;;;70.03;14.48;;;;;;;;;;5128561;27;20031;-47
2022/11/30 09:34:50;;;;;;;72.25;14.98;;;;;;;;;;5129156;27;20092;-46
2022/11/30 09:37:16;;;;;;;59.63;13.98;;;;;;;;;;5111039;27;20092;-42
2022/11/30 09:39:43;;;;;;;45.72;12.90;;;;;;;;;;5129427;27;20043;-44
2022/11/30 09:42:10;;;;;;;65.03;15.43;;;;;;;;;;5128825;27;20038;-46
2022/11/30 09:44:52;;;;;;;71.70;14.15;;;;;;;;;;5128584;27;20557;-47
2022/11/30 09:47:44;;;;;;;66.90;15.35;;;;;;;;;;5126422;27;20649;-47
2022/11/30 09:50:18;;;;;;;50.38;12.05;;;;;;;;;;5025310;28;20080;-44
2022/11/30 09:52:47;;;;;;;71.32;13.45;;;;;;;;;;5021819;28;20136;-44
2022/11/30 09:55:23;;;;;;;43.45;12.40;;;;;;;;;;5025772;28;20069;-44
2022/11/30 09:57:52;;;;;;;52.38;11.82;;;;;;;;;;5025985;28;20124;-44
2022/11/30 10:00:20;;;;;;;61.17;13.13;;;;;;;;;;5024604;28;20061;-47
2022/11/30 10:02:48;;;;;;;65.25;13.10;;;;;;;;;;5024980;28;20512;-45
2022/11/30 10:05:16;;;;;;;54.67;12.52;;;;;;;;;;5025718;28;20045;-50
2022/11/30 10:07:48;;;;;;;52.22;11.93;;;;;;;;;;5025065;28;20100;-46
2022/11/30 10:10:31;;;;;;;58.90;13.50;;;;;;;;;;5024934;28;20567;-50
2022/11/30 10:13:07;;;;;;;41.55;11.73;;;;;;;;;;5026062;28;20049;-51
2022/11/30 10:15:36;;;;;;;46.80;11.80;;;;;;;;;;5025091;28;20096;-50
2022/11/30 10:18:08;;;;;;;46.75;12.38;;;;;;;;;;5024928;28;20038;-51
2022/11/30 10:20:44;;;;;;;54.20;12.35;;;;;;;;;;5022702;28;20606;-52
2022/11/30 10:23:28;;;;;;;66.88;14.27;;;;;;;;;;5024758;28;20068;-49
2022/11/30 10:25:56;;;;;;;54.67;12.82;;;;;;;;;;5026227;27;20037;-49
2022/11/30 10:28:25;;;;;;;79.70;15.43;;;;;;;;;;5129641;27;20043;-50
2022/11/30 10:31:13;;;;;;;51.83;12.88;;;;;;;;;;5129604;27;20483;-47
2022/11/30 10:33:50;;;;;;;46.95;11.50;;;;;;;;;;5131415;27;20414;-49
2022/11/30 10:36:49;;;;;;;53.35;12.70;;;;;;;;;;5128920;27;20505;-48
2022/11/30 10:39:20;;;;;;;51.47;11.25;;;;;;;;;;5028286;28;20127;-48
2022/11/30 10:41:55;;;;;;;88.50;14.20;;;;;;;;;;5028897;28;20094;-48
2022/11/30 10:44:33;;;;;;;108.20;16.35;;;;;;;;;;5028523;28;20068;-49
2022/11/30 10:47:04;;;;;;;52.03;13.20;;;;;;;;;;5029039;28;20052;-50
2022/11/30 10:49:31;;;;;;;88.63;15.32;;;;;;;;;;5028056;28;20510;-49
2022/11/30 10:52:00;;;;;;;49.10;12.73;;;;;;;;;;5026458;28;20049;-49
2022/11/30 10:54:28;;;;;;;63.58;14.13;;;;;;;;;;5026846;28;20041;-50
2022/11/30 10:56:56;;;;;;;81.53;13.23;;;;;;;;;;5010897;28;20163;-50
2022/11/30 10:59:23;;;;;;;61.00;13.60;;;;;;;;;;5026726;28;20041;-50
2022/11/30 11:01:51;;;;;;;55.22;11.80;;;;;;;;;;5026514;28;20707;-51
2022/11/30 11:04:21;;;;;;;79.65;14.45;;;;;;;;;;5027073;28;20064;-49
2022/11/30 11:06:50;;;;;;;54.05;13.05;;;;;;;;;;5025418;28;20048;-48
2022/11/30 11:09:30;;;;;;;82.65;15.05;;;;;;;;;;5027371;28;20096;-49
2022/11/30 11:11:58;;;;;;;55.20;13.18;;;;;;;;;;5027078;28;20056;-52
2022/11/30 11:14:25;;;;;;;55.70;13.38;;;;;;;;;;5055321;27;20121;-50
2022/11/30 11:16:54;;;;;;;74.55;15.38;;;;;;;;;;5127760;27;20092;-50
2022/11/30 11:19:22;;;;;;;104.07;17.45;;;;;;;;;;5126815;27;20040;-50
2022/11/30 11:21:49;;;;;;;85.07;15.93;;;;;;;;;;5127713;27;20039;-49
2022/11/30 11:24:18;;;;;;;87.10;16.10;;;;;;;;;;5125937;27;20031;-49
2022/11/30 11:26:49;;;;;;;72.97;16.13;;;;;;;;;;5128433;27;20406;-48
2022/11/30 11:29:45;;;;;;;78.90;14.73;;;;;;;;;;5129265;27;20045;-51
2022/11/30 11:32:23;;;;;;;62.58;15.23;;;;;;;;;;5111457;27;20054;-49
2022/11/30 11:34:50;;;;;;;64.10;15.05;;;;;;;;;;5127533;27;20487;-48
2022/11/30 11:37:18;;;;;;;67.28;14.40;;;;;;;;;;5129114;27;20513;-49
2022/11/30 11:39:58;;;;;;;73.78;16.38;;;;;;;;;;5129580;27;20411;-50
2022/11/30 11:42:25;;;;;;;62.80;15.25;;;;;;;;;;5129897;27;20039;-49
2022/11/30 11:44:54;;;;;;;47.58;13.85;;;;;;;;;;5126520;27;20035;-53
2022/11/30 11:47:25;;;;;;;97.53;17.00;;;;;;;;;;5129145;27;20123;-48
2022/11/30 11:50:03;;;;;;;52.10;13.55;;;;;;;;;;5129675;27;20533;-49
2022/11/30 11:52:29;;;;;;;84.70;16.50;;;;;;;;;;5129413;27;20058;-48
2022/11/30 11:54:59;;;;;;;73.28;15.82;;;;;;;;;;5129109;27;20035;-50
2022/11/30 11:57:52;;;;;;;77.47;17.35;;;;;;;;;;5129019;27;20051;-50
2022/11/30 12:00:20;;;;;;;59.60;14.00;;;;;;;;;;5126349;27;20047;-47
2022/11/30 12:02:50;;;;;;;73.72;15.57;;;;;;;;;;5126926;27;20043;-48
2022/11/30 12:05:23;;;;;;;67.65;20.27;;;;;;;;;;5129948;27;20602;-53
2022/11/30 12:08:05;;;;;;;44.58;12.70;;;;;;;;;;5129720;27;20159;-52
2022/11/30 12:10:37;;;;;;;87.82;16.60;;;;;;;;;;5128222;27;20069;-56
2022/11/30 12:13:32;;;;;;;60.17;13.30;;;;;;;;;;5131148;27;20042;-48
2022/11/30 12:16:11;;;;;;;54.97;14.07;;;;;;;;;;5131414;27;20514;-48
2022/11/30 12:18:56;;;;;;;86.88;15.75;;;;;;;;;;5127555;27;20115;-52
2022/11/30 12:21:41;;;;;;;75.18;18.17;;;;;;;;;;5128563;27;20093;-50
2022/11/30 12:24:26;;;;;;;99.13;18.02;;;;;;;;;;5127377;27;20483;-49
2022/11/30 12:27:02;;;;;;;69.78;16.15;;;;;;;;;;5127858;27;20042;-48
2022/11/30 12:29:50;;;;;;;58.75;14.55;;;;;;;;;;5127696;27;20043;-48
2022/11/30 12:32:26;;;;;;;62.38;15.05;;;;;;;;;;5129039;27;20031;-48
2022/11/30 12:35:02;;;;;;;58.13;14.98;;;;;;;;;;5127483;27;20035;-50
2022/11/30 12:38:01;;;;;;;75.45;17.40;;;;;;;;;;5129286;27;20113;-49
2022/11/30 12:40:42;;;;;;;88.93;18.58;;;;;;;;;;5033020;28;20049;-48
2022/11/30 12:43:27;;;;;;;63.50;15.77;;;;;;;;;;5035140;28;20055;-47
2022/11/30 12:45:58;;;;;;;45.20;13.90;;;;;;;;;;5035386;28;20045;-49
2022/11/30 12:48:31;;;;;;;67.88;14.88;;;;;;;;;;5025526;28;20045;-49
2022/11/30 12:51:18;;;;;;;54.00;13.20;;;;;;;;;;5027105;28;20127;-49
2022/11/30 12:53:57;;;;;;;40.88;13.65;;;;;;;;;;5024503;28;20052;-49
2022/11/30 12:56:41;;;;;;;51.95;14.38;;;;;;;;;;5026380;28;20053;-50
2022/11/30 12:59:30;;;;;;;49.53;15.25;;;;;;;;;;5026783;28;20045;-50
2022/11/30 13:02:19;;;;;;;80.90;18.48;;;;;;;;;;5024833;28;20033;-51
2022/11/30 13:04:52;;;;;;;69.60;19.25;;;;;;;;;;4996957;28;20051;-49
2022/11/30 13:07:26;;;;;;;65.65;15.40;;;;;;;;;;4995367;28;20050;-47
2022/11/30 13:09:57;;;;;;;57.42;14.38;;;;;;;;;;4995848;28;20089;-47
2022/11/30 13:12:34;;;;;;;55.30;13.65;;;;;;;;;;4995686;28;20727;-47
2022/11/30 13:15:03;;;;;;;48.90;13.18;;;;;;;;;;4997656;28;20042;-49
2022/11/30 13:17:31;;;;;;;54.00;14.88;;;;;;;;;;5039596;28;20079;-47
2022/11/30 13:20:06;;;;;;;49.85;15.20;;;;;;;;;;5020411;28;20131;-47
2022/11/30 13:22:33;;;;;;;53.25;15.73;;;;;;;;;;5033084;28;20655;-49
2022/11/30 13:25:10;;;;;;;68.25;16.42;;;;;;;;;;5037928;28;20049;-49
2022/11/30 13:27:40;;;;;;;52.55;16.10;;;;;;;;;;5035689;28;20049;-47
2022/11/30 13:30:12;;;;;;;45.20;14.38;;;;;;;;;;5038706;28;20087;-47
2022/11/30 13:32:41;;;;;;;54.03;15.98;;;;;;;;;;5035021;28;20087;-48
2022/11/30 13:35:26;;;;;;;40.10;15.32;;;;;;;;;;5022289;28;20107;-49
2022/11/30 13:38:03;;;;;;;48.58;15.57;;;;;;;;;;5036695;28;20112;-47
2022/11/30 13:41:00;;;;;;;59.17;17.42;;;;;;;;;;5041244;28;20045;-49
2022/11/30 13:43:28;;;;;;;62.58;14.23;;;;;;;;;;5129351;27;20126;-49
2022/11/30 13:46:13;;;;;;;47.92;12.82;;;;;;;;;;5130050;27;20039;-49
2022/11/30 13:48:41;;;;;;;48.42;13.13;;;;;;;;;;5128679;27;20135;-49
2022/11/30 13:51:07;;;;;;;36.25;11.25;;;;;;;;;;5128928;27;20043;-50
2022/11/30 13:53:37;;;;;;;54.63;10.98;;;;;;;;;;5125394;27;20066;-50
2022/11/30 13:56:06;;;;;;;37.60;10.90;;;;;;;;;;5129054;27;20057;-48
2022/11/30 13:58:33;;;;;;;46.00;11.52;;;;;;;;;;5129083;27;20145;-48
2022/11/30 14:01:00;;;;;;;52.92;12.07;;;;;;;;;;5129314;27;20043;-51
2022/11/30 14:03:28;;;;;;;41.30;11.95;;;;;;;;;;5125949;27;20116;-48
2022/11/30 14:05:55;;;;;;;42.88;12.82;;;;;;;;;;5124776;27;20124;-49
2022/11/30 14:08:21;;;;;;;50.13;16.15;;;;;;;;;;5109940;28;20039;-49
2022/11/30 14:10:49;;;;;;;74.38;16.13;;;;;;;;;;5128217;27;20468;-51
2022/11/30 14:13:19;;;;;;;52.97;14.32;;;;;;;;;;5126244;27;20050;-48
2022/11/30 14:15:46;;;;;;;50.60;13.43;;;;;;;;;;5127751;27;20047;-48
2022/11/30 14:18:21;;;;;;;53.63;14.52;;;;;;;;;;5124848;28;20039;-48
2022/11/30 14:20:50;;;;;;;64.53;16.08;;;;;;;;;;5125147;28;20039;-49
2022/11/30 14:23:20;;;;;;;55.13;14.98;;;;;;;;;;5102599;28;20057;-52
2022/11/30 14:25:48;;;;;;;39.20;12.70;;;;;;;;;;5123316;28;20032;-51
2022/11/30 14:28:17;;;;;;;44.80;12.77;;;;;;;;;;5127036;27;20433;-46
2022/11/30 14:30:44;;;;;;;39.65;11.32;;;;;;;;;;5127086;28;20099;-51
2022/11/30 14:33:13;;;;;;;52.58;12.93;;;;;;;;;;5127780;27;20049;-47
2022/11/30 14:35:47;;;;;;;41.40;9.07;;;;;;;;;;5108175;28;20051;-50